Time;durP1;ratioP1;P1;durP2;ratioP2;P2;SDS_P1;SDS_P2;PMS_P1;PMS_P2;Temp;Humidity;BMP_temperature;BMP_pressure;BME280_temperature;BME280_humidity;BME280_pressure;Samples;Min_cycle;Max_cycle;Signal;HPM_P1;HPM_P2
2021/12/22 00:02:22;;;;;;;;;;;-2.20;99.90;;;;;;5069984;28;19923;-56
2021/12/22 00:04:49;;;;;;;;;;;-2.20;99.90;;;;;;5070891;28;19920;-55
2021/12/22 00:07:15;;;;;;;;;;;-2.30;99.90;;;;;;5073926;28;20627;-56
2021/12/22 00:09:41;;;;;;;;;;;-2.20;99.90;;;;;;5070753;28;19912;-56
2021/12/22 00:12:07;;;;;;;;;;;-2.20;99.90;;;;;;5069580;28;20011;-56
2021/12/22 00:14:33;;;;;;;;;;;-2.20;99.90;;;;;;5072256;28;19916;-54
2021/12/22 00:16:58;;;;;;;;;;;-2.20;99.90;;;;;;5070153;28;19916;-56
2021/12/22 00:19:24;;;;;;;;;;;-2.20;99.90;;;;;;5069838;28;20723;-55
2021/12/22 00:21:50;;;;;;;;;;;-2.30;99.90;;;;;;5074760;28;20296;-56
2021/12/22 00:24:15;;;;;;;;;;;-2.30;99.90;;;;;;5074338;28;20475;-56
2021/12/22 00:26:41;;;;;;;;;;;-2.30;99.90;;;;;;5073472;28;19912;-55
2021/12/22 00:29:08;;;;;;;;;;;-2.30;99.90;;;;;;5071198;28;19919;-56
2021/12/22 00:31:41;;;;;;;;;;;-2.30;99.90;;;;;;5078072;28;19912;-56
2021/12/22 00:34:15;;;;;;;;;;;-2.30;99.90;;;;;;5074640;28;19970;-57
2021/12/22 00:36:41;;;;;;;;;;;-2.30;99.90;;;;;;5075366;28;20007;-57
2021/12/22 00:39:06;;;;;;;;;;;-2.20;99.90;;;;;;5068171;28;19939;-57
2021/12/22 00:41:32;;;;;;;;;;;-2.30;99.90;;;;;;5072186;28;19972;-56
2021/12/22 00:43:57;;;;;;;;;;;-2.40;99.90;;;;;;5074104;28;19913;-56
2021/12/22 00:46:22;;;;;;;;;;;-2.40;99.90;;;;;;5071680;28;20011;-56
2021/12/22 00:48:48;;;;;;;;;;;-2.40;99.90;;;;;;5075506;28;20283;-55
2021/12/22 00:51:13;;;;;;;;;;;-2.40;99.90;;;;;;5073026;28;20116;-56
2021/12/22 00:53:39;;;;;;;;;;;-2.40;99.90;;;;;;5073786;28;20565;-56
2021/12/22 00:56:06;;;;;;;;;;;-2.30;99.90;;;;;;5073918;28;19916;-57
2021/12/22 00:58:32;;;;;;;;;;;-2.40;99.90;;;;;;5072259;28;19923;-55
2021/12/22 01:00:57;;;;;;;;;;;-2.50;99.90;;;;;;5074674;28;20398;-57
2021/12/22 01:03:23;;;;;;;;;;;-2.50;99.90;;;;;;5066733;28;19916;-56
2021/12/22 01:05:48;;;;;;;;;;;-2.40;99.90;;;;;;5070400;28;20412;-57
2021/12/22 01:08:14;;;;;;;;;;;-2.60;99.90;;;;;;5070025;28;19923;-56
2021/12/22 01:10:39;;;;;;;;;;;-2.50;99.90;;;;;;5070840;28;20290;-55
2021/12/22 01:13:06;;;;;;;;;;;-2.30;99.90;;;;;;5071945;28;19923;-56
2021/12/22 01:15:32;;;;;;;;;;;-2.50;99.90;;;;;;5068435;28;20352;-57
2021/12/22 01:18:10;;;;;;;;;;;-2.50;99.90;;;;;;5073478;28;20227;-56
2021/12/22 01:20:50;;;;;;;;;;;-2.60;99.90;;;;;;5074206;28;19992;-55
2021/12/22 01:23:19;;;;;;;;;;;-2.50;99.90;;;;;;5069375;28;20771;-56
2021/12/22 01:25:44;;;;;;;;;;;-2.60;99.90;;;;;;5072179;28;20002;-56
2021/12/22 01:28:10;;;;;;;;;;;-2.60;99.90;;;;;;5069167;28;20382;-55
2021/12/22 01:30:42;;;;;;;;;;;-2.70;99.90;;;;;;5071298;28;20462;-56
2021/12/22 01:33:07;;;;;;;;;;;-2.60;99.90;;;;;;5070152;28;20001;-55
2021/12/22 01:35:33;;;;;;;;;;;-2.70;99.90;;;;;;5070346;28;19956;-56
2021/12/22 01:37:59;;;;;;;;;;;-2.70;99.90;;;;;;5068979;28;20232;-56
2021/12/22 01:40:25;;;;;;;;;;;-2.70;99.90;;;;;;5069846;28;20363;-56
2021/12/22 01:42:52;;;;;;;;;;;-2.70;99.90;;;;;;5073840;28;20072;-55
2021/12/22 01:45:31;;;;;;;;;;;-2.70;99.90;;;;;;5071348;28;20056;-56
2021/12/22 01:50:44;;;;;;;;;;;-2.60;99.90;;;;;;5072623;28;19970;-55
2021/12/22 01:53:21;;;;;;;;;;;-2.70;99.90;;;;;;5067915;28;19943;-54
2021/12/22 01:56:04;;;;;;;;;;;-2.50;99.90;;;;;;5071364;28;20770;-56
2021/12/22 01:58:37;;;;;;;;;;;-2.40;99.90;;;;;;5071521;28;19917;-56
2021/12/22 02:01:04;;;;;;;;;;;-2.60;99.90;;;;;;5071394;28;19924;-57
2021/12/22 02:03:30;;;;;;;;;;;-2.50;99.90;;;;;;5068209;28;19912;-56
2021/12/22 02:05:55;;;;;;;;;;;-2.60;99.90;;;;;;5070582;28;20212;-56
2021/12/22 02:08:21;;;;;;;;;;;-2.50;99.90;;;;;;5067977;28;19922;-55
2021/12/22 02:10:47;;;;;;;;;;;-2.60;99.90;;;;;;5073426;28;20007;-56
2021/12/22 02:13:21;;;;;;;;;;;-2.60;99.90;;;;;;5070908;28;19913;-55
2021/12/22 02:15:47;;;;;;;;;;;-2.70;99.90;;;;;;5070731;28;19912;-56
2021/12/22 02:18:17;;;;;;;;;;;-2.80;99.90;;;;;;5069474;28;19977;-55
2021/12/22 02:20:43;;;;;;;;;;;-2.70;99.90;;;;;;5070362;28;19920;-57
2021/12/22 02:23:08;;;;;;;;;;;-2.80;99.90;;;;;;5071223;28;19927;-55
2021/12/22 02:25:41;;;;;;;;;;;-2.80;99.90;;;;;;5067477;28;20020;-56
2021/12/22 02:28:14;;;;;;;;;;;-2.70;99.90;;;;;;5067080;28;19962;-56
2021/12/22 02:30:40;;;;;;;;;;;-2.80;99.90;;;;;;5069250;28;19915;-56
2021/12/22 02:33:23;;;;;;;;;;;-2.90;99.90;;;;;;5071590;28;20450;-56
2021/12/22 02:36:06;;;;;;;;;;;-2.80;99.90;;;;;;5070231;28;19931;-56
2021/12/22 02:38:33;;;;;;;;;;;-2.80;99.90;;;;;;5066820;28;20375;-56
2021/12/22 02:40:58;;;;;;;;;;;-2.80;99.90;;;;;;5072281;28;19920;-56
2021/12/22 02:43:30;;;;;;;;;;;-2.90;99.90;;;;;;5070503;28;20168;-56
2021/12/22 02:45:56;;;;;;;;;;;-2.80;99.90;;;;;;5069920;28;20048;-56
2021/12/22 02:48:23;;;;;;;;;;;-2.80;99.90;;;;;;5068704;28;20398;-55
2021/12/22 02:50:49;;;;;;;;;;;-2.90;99.90;;;;;;5071618;28;19926;-55
2021/12/22 02:53:15;;;;;;;;;;;-2.70;99.90;;;;;;5067817;28;19916;-56
2021/12/22 02:55:56;;;;;;;;;;;-2.60;99.90;;;;;;5071179;28;19954;-56
2021/12/22 02:58:32;;;;;;;;;;;-2.60;99.90;;;;;;5068744;28;19916;-55
2021/12/22 03:04:04;;;;;;;;;;;-2.80;99.90;;;;;;5067862;28;19966;-55
2021/12/22 03:09:20;;;;;;;;;;;-2.50;99.90;;;;;;5072288;28;19976;-55
2021/12/22 03:11:46;;;;;;;;;;;-2.60;99.90;;;;;;5071394;28;19919;-56
2021/12/22 03:14:12;;;;;;;;;;;-2.60;99.90;;;;;;5071146;28;20165;-55
2021/12/22 03:16:38;;;;;;;;;;;-2.60;99.90;;;;;;5070641;28;19923;-56
2021/12/22 03:19:03;;;;;;;;;;;-2.50;99.90;;;;;;5069925;28;19924;-55
2021/12/22 03:21:29;;;;;;;;;;;-2.50;99.90;;;;;;5069138;28;20597;-57
2021/12/22 03:23:55;;;;;;;;;;;-2.50;99.90;;;;;;5072210;28;20011;-54
2021/12/22 03:26:23;;;;;;;;;;;-2.40;99.90;;;;;;5068038;28;19923;-56
2021/12/22 03:28:49;;;;;;;;;;;-2.60;99.90;;;;;;5067168;28;19920;-56
2021/12/22 03:31:14;;;;;;;;;;;-2.60;99.90;;;;;;5069356;28;19916;-56
2021/12/22 03:33:40;;;;;;;;;;;-2.60;99.90;;;;;;5070557;28;20087;-56
2021/12/22 03:36:06;;;;;;;;;;;-2.40;99.90;;;;;;5066280;28;19916;-56
2021/12/22 03:38:32;;;;;;;;;;;-2.50;99.90;;;;;;5071106;28;20379;-54
2021/12/22 03:40:58;;;;;;;;;;;-2.50;99.90;;;;;;5069351;28;19985;-56
2021/12/22 03:43:24;;;;;;;;;;;-2.60;99.90;;;;;;5066850;28;20331;-55
2021/12/22 03:45:49;;;;;;;;;;;-2.60;99.90;;;;;;5069781;28;19912;-55
2021/12/22 03:48:17;;;;;;;;;;;-2.50;99.90;;;;;;5070812;28;19955;-56
2021/12/22 03:50:43;;;;;;;;;;;-2.40;99.90;;;;;;5073844;28;19916;-56
2021/12/22 03:53:09;;;;;;;;;;;-2.70;99.90;;;;;;5069441;28;19928;-56
2021/12/22 03:55:34;;;;;;;;;;;-2.70;99.90;;;;;;5069814;28;20249;-56
2021/12/22 03:58:00;;;;;;;;;;;-2.70;99.90;;;;;;5074388;28;19912;-55
2021/12/22 04:00:26;;;;;;;;;;;-2.70;99.90;;;;;;5073587;28;19927;-55
2021/12/22 04:02:51;;;;;;;;;;;-2.70;99.90;;;;;;5072326;28;19922;-56
2021/12/22 04:05:18;;;;;;;;;;;-2.70;99.90;;;;;;5072387;28;20200;-56
2021/12/22 04:07:43;;;;;;;;;;;-2.70;99.90;;;;;;5072475;28;20592;-56
2021/12/22 04:10:22;;;;;;;;;;;-2.70;99.90;;;;;;5075820;28;19920;-56
2021/12/22 04:12:50;;;;;;;;;;;-2.70;99.90;;;;;;5071031;28;19951;-56
2021/12/22 04:15:15;;;;;;;;;;;-2.70;99.90;;;;;;5073485;28;20326;-55
2021/12/22 04:17:41;;;;;;;;;;;-2.70;99.90;;;;;;5072165;28;20242;-56
2021/12/22 04:20:06;;;;;;;;;;;-2.70;99.90;;;;;;5074764;28;19919;-55
2021/12/22 04:22:32;;;;;;;;;;;-2.70;99.90;;;;;;5074130;28;19939;-56
2021/12/22 04:24:57;;;;;;;;;;;-2.90;99.90;;;;;;5071507;28;19963;-54
2021/12/22 04:27:23;;;;;;;;;;;-2.70;99.90;;;;;;5073614;28;19981;-56
2021/12/22 04:29:48;;;;;;;;;;;-2.90;99.90;;;;;;5075124;28;19920;-56
2021/12/22 04:32:14;;;;;;;;;;;-2.80;99.90;;;;;;5070053;28;19923;-55
2021/12/22 04:34:39;;;;;;;;;;;-2.80;99.90;;;;;;5069046;28;19923;-55
2021/12/22 04:37:05;;;;;;;;;;;-2.80;99.90;;;;;;5071208;28;19920;-53
2021/12/22 04:39:32;;;;;;;;;;;-3.00;99.90;;;;;;5075200;28;19918;-56
2021/12/22 04:41:58;;;;;;;;;;;-2.80;99.90;;;;;;5074192;28;19916;-56
2021/12/22 04:44:24;;;;;;;;;;;-2.90;99.90;;;;;;5072251;28;20023;-56
2021/12/22 04:46:49;;;;;;;;;;;-2.80;99.90;;;;;;5072652;28;19916;-55
2021/12/22 04:49:15;;;;;;;;;;;-2.80;99.90;;;;;;5068035;28;19916;-56
2021/12/22 04:51:48;;;;;;;;;;;-2.80;99.90;;;;;;5065610;28;19974;-56
2021/12/22 04:55:01;;;;;;;;;;;-2.80;99.90;;;;;;5069009;28;20362;-55
2021/12/22 04:57:05;;;;;;;;;;;-3.00;99.90;;;;;;5069933;28;19916;-56
2021/12/22 04:59:31;;;;;;;;;;;-2.80;99.90;;;;;;5074391;28;19916;-54
2021/12/22 05:01:57;;;;;;;;;;;-2.90;99.90;;;;;;5068376;28;19999;-55
2021/12/22 05:04:22;;;;;;;;;;;-2.90;99.90;;;;;;5071803;28;20415;-56
2021/12/22 05:06:48;;;;;;;;;;;-2.90;99.90;;;;;;5071638;28;19927;-56
2021/12/22 05:09:13;;;;;;;;;;;-2.90;99.90;;;;;;5074829;28;20258;-56
2021/12/22 05:11:41;;;;;;;;;;;-2.80;99.90;;;;;;5071019;28;19923;-55
2021/12/22 05:14:08;;;;;;;;;;;-2.90;99.90;;;;;;5072025;28;19916;-56
2021/12/22 05:16:34;;;;;;;;;;;-2.90;99.90;;;;;;5069626;28;20387;-55
2021/12/22 05:19:12;;;;;;;;;;;-2.90;99.90;;;;;;5071746;28;20007;-55
2021/12/22 05:21:37;;;;;;;;;;;-2.80;99.90;;;;;;5070310;28;19920;-56
2021/12/22 05:24:03;;;;;;;;;;;-2.90;99.90;;;;;;5067963;28;19935;-57
2021/12/22 05:26:29;;;;;;;;;;;-2.80;99.90;;;;;;5069530;28;19943;-56
2021/12/22 05:28:55;;;;;;;;;;;-2.80;99.90;;;;;;5068265;28;20279;-55
2021/12/22 05:31:21;;;;;;;;;;;-2.80;99.90;;;;;;5071670;28;20041;-57
2021/12/22 05:33:46;;;;;;;;;;;-2.90;99.90;;;;;;5070083;28;19915;-57
2021/12/22 05:36:12;;;;;;;;;;;-3.00;99.90;;;;;;5070707;28;19916;-56
2021/12/22 05:38:37;;;;;;;;;;;-2.90;99.90;;;;;;5072914;28;19915;-55
2021/12/22 05:41:03;;;;;;;;;;;-2.90;99.90;;;;;;5071921;28;20435;-55
2021/12/22 05:43:29;;;;;;;;;;;-2.90;99.90;;;;;;5072536;28;19920;-55
2021/12/22 05:45:54;;;;;;;;;;;-2.80;99.90;;;;;;5073101;28;20037;-56
2021/12/22 05:48:20;;;;;;;;;;;-3.00;99.90;;;;;;5070160;28;19912;-55
2021/12/22 05:50:49;;;;;;;;;;;-2.90;99.90;;;;;;5071569;28;19916;-56
2021/12/22 05:53:15;;;;;;;;;;;-2.80;99.90;;;;;;5073018;28;20354;-56
2021/12/22 05:55:40;;;;;;;;;;;-2.80;99.90;;;;;;5072494;28;19920;-56
2021/12/22 05:58:06;;;;;;;;;;;-2.70;99.90;;;;;;5073442;28;20010;-56
2021/12/22 06:00:31;;;;;;;;;;;-2.80;99.90;;;;;;5075288;28;19926;-56
2021/12/22 06:02:57;;;;;;;;;;;-2.70;99.90;;;;;;5069571;28;19923;-54
2021/12/22 06:05:22;;;;;;;;;;;-2.60;99.90;;;;;;5072168;28;19966;-57
2021/12/22 06:07:48;;;;;;;;;;;-2.50;99.90;;;;;;5069381;28;19920;-56
2021/12/22 06:10:14;;;;;;;;;;;-2.50;99.90;;;;;;5065903;28;19920;-56
2021/12/22 06:12:39;;;;;;;;;;;-2.40;99.90;;;;;;5066051;28;19920;-56
2021/12/22 06:15:05;;;;;;;;;;;-2.30;99.90;;;;;;5070263;28;19976;-56
2021/12/22 06:17:30;;;;;;;;;;;-2.30;99.90;;;;;;5070067;28;19916;-56
2021/12/22 06:19:56;;;;;;;;;;;-2.20;99.90;;;;;;5070905;28;20342;-56
2021/12/22 06:22:22;;;;;;;;;;;-2.20;99.90;;;;;;5071678;28;20632;-56
2021/12/22 06:24:48;;;;;;;;;;;-1.90;99.90;;;;;;5072377;28;19965;-56
2021/12/22 06:27:14;;;;;;;;;;;-2.10;99.90;;;;;;5069424;28;19916;-56
2021/12/22 06:29:39;;;;;;;;;;;-2.00;99.90;;;;;;5069750;28;20296;-56
2021/12/22 06:32:05;;;;;;;;;;;-2.00;99.90;;;;;;5073417;28;19912;-55
2021/12/22 06:34:30;;;;;;;;;;;-2.00;99.90;;;;;;5069209;28;20590;-56
2021/12/22 06:36:57;;;;;;;;;;;-1.90;99.90;;;;;;5071736;28;19912;-55
2021/12/22 06:39:22;;;;;;;;;;;-1.90;99.90;;;;;;5069289;28;19997;-55
2021/12/22 06:41:48;;;;;;;;;;;-1.70;99.90;;;;;;5072494;28;20445;-56
2021/12/22 06:44:14;;;;;;;;;;;-1.60;99.90;;;;;;5070203;28;19922;-55
2021/12/22 06:46:41;;;;;;;;;;;-1.70;99.90;;;;;;5069481;28;19923;-56
2021/12/22 06:49:07;;;;;;;;;;;-1.50;99.90;;;;;;5069103;28;19962;-55
2021/12/22 06:51:32;;;;;;;;;;;-1.40;99.90;;;;;;5070612;28;19924;-55
2021/12/22 06:53:58;;;;;;;;;;;-1.40;99.90;;;;;;5068927;28;19923;-56
2021/12/22 06:56:23;;;;;;;;;;;-1.20;99.90;;;;;;5066982;28;20026;-55
2021/12/22 06:58:49;;;;;;;;;;;-1.30;99.90;;;;;;5071881;28;19920;-54
2021/12/22 07:01:18;;;;;;;;;;;-1.30;99.90;;;;;;5068694;28;20405;-57
2021/12/22 07:03:44;;;;;;;;;;;-1.10;99.90;;;;;;5069378;28;19959;-57
2021/12/22 07:06:10;;;;;;;;;;;-1.10;99.90;;;;;;5070242;28;19916;-56
2021/12/22 07:08:35;;;;;;;;;;;-1.00;99.90;;;;;;5063812;28;20426;-57
2021/12/22 07:11:01;;;;;;;;;;;-1.10;99.90;;;;;;5065257;28;19924;-56
2021/12/22 07:13:27;;;;;;;;;;;-1.10;99.90;;;;;;5068108;28;19915;-57
2021/12/22 07:15:52;;;;;;;;;;;-1.00;99.90;;;;;;5071665;28;19965;-56
2021/12/22 07:18:17;;;;;;;;;;;-1.10;99.90;;;;;;5069358;28;20005;-57
2021/12/22 07:20:43;;;;;;;;;;;-1.00;99.90;;;;;;5070486;28;20237;-57
2021/12/22 07:23:09;;;;;;;;;;;-0.90;99.90;;;;;;5070145;28;20010;-56
2021/12/22 07:25:34;;;;;;;;;;;-0.90;99.90;;;;;;5070093;28;20076;-58
2021/12/22 07:28:00;;;;;;;;;;;-1.00;99.90;;;;;;5070678;28;19923;-56
2021/12/22 07:30:26;;;;;;;;;;;-1.00;99.90;;;;;;5067044;28;20287;-57
2021/12/22 07:32:52;;;;;;;;;;;-1.00;99.90;;;;;;5069328;28;19917;-57
2021/12/22 07:35:36;;;;;;;;;;;-1.00;99.90;;;;;;5065701;28;19927;-56
2021/12/22 07:38:13;;;;;;;;;;;-1.00;99.90;;;;;;5069179;28;19912;-56
2021/12/22 07:40:38;;;;;;;;;;;-0.90;99.90;;;;;;5070366;28;20182;-57
2021/12/22 07:43:04;;;;;;;;;;;-0.80;99.90;;;;;;5069679;28;20466;-56
2021/12/22 07:45:29;;;;;;;;;;;-1.00;99.90;;;;;;5071193;28;19917;-57
2021/12/22 07:47:55;;;;;;;;;;;-1.00;99.90;;;;;;5069769;28;20133;-57
2021/12/22 07:50:20;;;;;;;;;;;-1.00;99.90;;;;;;5064149;28;19919;-58
2021/12/22 07:52:46;;;;;;;;;;;-0.90;99.90;;;;;;5069380;28;19959;-56
2021/12/22 07:55:11;;;;;;;;;;;-0.80;99.90;;;;;;5068725;28;20348;-56
2021/12/22 07:57:37;;;;;;;;;;;-0.80;99.90;;;;;;5069341;28;19977;-58
2021/12/22 08:00:04;;;;;;;;;;;-0.70;99.90;;;;;;5069352;28;19925;-56
2021/12/22 08:02:30;;;;;;;;;;;-0.80;99.90;;;;;;5063475;28;19916;-56
2021/12/22 08:04:56;;;;;;;;;;;-0.70;99.90;;;;;;5067783;28;20715;-57
2021/12/22 08:07:21;;;;;;;;;;;-0.80;99.90;;;;;;5071614;28;19917;-56
2021/12/22 08:09:47;;;;;;;;;;;-0.70;99.90;;;;;;5068441;28;20466;-57
2021/12/22 08:12:12;;;;;;;;;;;-0.70;99.90;;;;;;5068612;28;19920;-56
2021/12/22 08:14:39;;;;;;;;;;;-0.60;99.90;;;;;;5063242;28;20606;-58
2021/12/22 08:17:05;;;;;;;;;;;-0.50;99.90;;;;;;5066818;28;19916;-58
2021/12/22 08:19:31;;;;;;;;;;;-0.60;99.90;;;;;;5068250;28;19920;-57
2021/12/22 08:21:56;;;;;;;;;;;-0.70;99.90;;;;;;5070156;28;20518;-56
2021/12/22 08:24:23;;;;;;;;;;;-0.80;99.90;;;;;;5064692;28;20339;-58
2021/12/22 08:26:49;;;;;;;;;;;-0.70;99.90;;;;;;5067020;28;19916;-58
2021/12/22 08:29:14;;;;;;;;;;;-0.70;99.90;;;;;;5069286;28;19923;-57
2021/12/22 08:31:40;;;;;;;;;;;-0.50;99.90;;;;;;5068977;28;20173;-56
2021/12/22 08:34:06;;;;;;;;;;;-0.50;99.90;;;;;;5066663;28;19954;-57
2021/12/22 08:39:16;;;;;;;;;;;-0.40;99.90;;;;;;5068083;28;19927;-57
2021/12/22 08:41:47;;;;;;;;;;;-0.30;99.90;;;;;;5069507;28;19916;-58
2021/12/22 08:44:13;;;;;;;;;;;-0.40;99.90;;;;;;5072858;28;20179;-57
2021/12/22 08:46:40;;;;;;;;;;;-0.40;99.90;;;;;;5069092;28;20667;-58
2021/12/22 08:49:06;;;;;;;;;;;-0.20;99.90;;;;;;5073743;28;19931;-58
2021/12/22 08:51:31;;;;;;;;;;;-0.20;99.90;;;;;;5072593;28;20249;-58
2021/12/22 08:53:57;;;;;;;;;;;0.00;99.90;;;;;;5072266;28;19939;-58
2021/12/22 08:56:23;;;;;;;;;;;-0.20;99.90;;;;;;5071165;28;19982;-57
2021/12/22 08:58:49;;;;;;;;;;;0.00;99.90;;;;;;5074201;28;20488;-57
2021/12/22 09:01:14;;;;;;;;;;;-0.10;99.90;;;;;;5070813;28;20454;-57
2021/12/22 09:03:40;;;;;;;;;;;0.10;99.90;;;;;;5072059;28;20523;-57
2021/12/22 09:06:05;;;;;;;;;;;0.20;99.90;;;;;;5071693;28;20326;-57
2021/12/22 09:08:31;;;;;;;;;;;0.10;99.90;;;;;;5073259;28;19916;-58
2021/12/22 09:10:56;;;;;;;;;;;0.00;99.90;;;;;;5071534;28;19919;-58
2021/12/22 09:13:22;;;;;;;;;;;0.10;99.90;;;;;;5073281;28;19928;-58
2021/12/22 09:15:48;;;;;;;;;;;0.10;99.90;;;;;;5072013;28;20396;-57
2021/12/22 09:18:14;;;;;;;;;;;0.20;99.90;;;;;;5072640;28;19984;-59
2021/12/22 09:20:39;;;;;;;;;;;0.20;99.90;;;;;;5075671;28;19924;-58
2021/12/22 09:23:05;;;;;;;;;;;0.30;99.90;;;;;;5061971;28;20051;-57
2021/12/22 09:25:33;;;;;;;;;;;-0.30;99.90;;;;;;5086681;28;19962;-56
2021/12/22 09:27:59;;;;;;;;;;;0.30;99.90;;;;;;5072006;28;19963;-58
2021/12/22 09:30:25;;;;;;;;;;;0.50;99.90;;;;;;5069535;28;19969;-60
2021/12/22 09:32:51;;;;;;;;;;;0.30;99.90;;;;;;5072681;28;19912;-57
2021/12/22 09:35:16;;;;;;;;;;;0.50;99.90;;;;;;5073381;28;19919;-58
2021/12/22 09:37:42;;;;;;;;;;;0.40;99.90;;;;;;5070677;28;19999;-57
2021/12/22 09:40:08;;;;;;;;;;;0.70;99.90;;;;;;5069935;28;19923;-58
2021/12/22 09:42:33;;;;;;;;;;;0.50;99.90;;;;;;5070521;28;19972;-56
2021/12/22 09:45:01;;;;;;;;;;;0.70;99.90;;;;;;5072986;28;20210;-58
2021/12/22 09:47:31;;;;;;;;;;;0.70;99.90;;;;;;5071511;28;19916;-59
2021/12/22 09:52:28;;;;;;;;;;;0.80;99.90;;;;;;5069174;28;20398;-57
2021/12/22 09:54:55;;;;;;;;;;;0.80;99.90;;;;;;5068872;28;20007;-58
2021/12/22 09:57:21;;;;;;;;;;;0.90;99.90;;;;;;5070320;28;19923;-57
2021/12/22 09:59:48;;;;;;;;;;;0.80;99.90;;;;;;5071693;28;20360;-57
2021/12/22 10:02:13;;;;;;;;;;;0.90;99.90;;;;;;5071840;28;19981;-58
2021/12/22 10:04:39;;;;;;;;;;;0.90;99.90;;;;;;5071964;28;19928;-57
2021/12/22 10:07:07;;;;;;;;;;;0.90;99.90;;;;;;5071018;28;19938;-58
2021/12/22 10:09:32;;;;;;;;;;;1.10;99.90;;;;;;5071343;28;20302;-58
2021/12/22 10:12:04;;;;;;;;;;;1.10;99.90;;;;;;5069616;28;19916;-57
2021/12/22 10:14:30;;;;;;;;;;;1.00;99.90;;;;;;5068696;28;19922;-58
2021/12/22 10:16:56;;;;;;;;;;;1.00;99.90;;;;;;5088874;28;19915;-66
2021/12/22 10:19:25;;;;;;;;;;;1.20;99.90;;;;;;5071910;28;19947;-65
2021/12/22 10:21:59;;;;;;;;;;;1.00;99.90;;;;;;5066260;28;19920;-61
2021/12/22 10:24:35;;;;;;;;;;;1.20;99.90;;;;;;5066635;28;19973;-62
2021/12/22 10:27:02;;;;;;;;;;;1.00;99.90;;;;;;5070912;28;19912;-63
2021/12/22 10:29:31;;;;;;;;;;;1.10;99.90;;;;;;5069723;28;20341;-65
2021/12/22 10:32:04;;;;;;;;;;;1.30;99.90;;;;;;5069155;28;19916;-66
2021/12/22 10:34:29;;;;;;;;;;;1.30;99.90;;;;;;5070824;28;20357;-63
2021/12/22 10:36:55;;;;;;;;;;;1.30;99.90;;;;;;5070549;28;19912;-66
2021/12/22 10:39:28;;;;;;;;;;;1.20;99.90;;;;;;5070553;28;20334;-64
2021/12/22 10:42:01;;;;;;;;;;;1.30;99.90;;;;;;5072206;28;19927;-65
2021/12/22 10:44:40;;;;;;;;;;;1.20;99.90;;;;;;5067875;28;19920;-63
2021/12/22 10:47:32;;;;;;;;;;;1.30;99.90;;;;;;5068689;28;19996;-65
2021/12/22 10:50:07;;;;;;;;;;;1.30;99.90;;;;;;5070488;28;20341;-62
2021/12/22 10:52:33;;;;;;;;;;;1.40;99.90;;;;;;5069692;28;20038;-62
2021/12/22 10:55:10;;;;;;;;;;;1.50;99.90;;;;;;5068655;28;20011;-63
2021/12/22 10:57:37;;;;;;;;;;;1.50;99.90;;;;;;5067589;28;19979;-63
2021/12/22 11:00:12;;;;;;;;;;;1.50;99.90;;;;;;5068754;28;19916;-61
2021/12/22 11:02:39;;;;;;;;;;;1.50;99.90;;;;;;5055979;28;19916;-65
2021/12/22 11:05:15;;;;;;;;;;;1.50;99.90;;;;;;5053718;28;20058;-59
2021/12/22 11:07:42;;;;;;;;;;;1.50;99.90;;;;;;5050965;28;19927;-64
2021/12/22 11:10:22;;;;;;;;;;;1.70;99.90;;;;;;5052644;28;19912;-61
2021/12/22 11:12:58;;;;;;;;;;;1.60;99.90;;;;;;5042757;28;20057;-60
2021/12/22 11:15:25;;;;;;;;;;;1.60;99.90;;;;;;5043496;28;19916;-61
2021/12/22 11:17:50;;;;;;;;;;;1.70;99.90;;;;;;5041314;28;19966;-67
2021/12/22 11:20:16;;;;;;;;;;;1.60;99.90;;;;;;5041256;28;20036;-65
2021/12/22 11:22:57;;;;;;;;;;;1.70;99.90;;;;;;5040281;28;19946;-62
2021/12/22 11:25:23;;;;;;;;;;;1.80;99.90;;;;;;5039780;28;19920;-67
2021/12/22 11:27:49;;;;;;;;;;;1.80;99.90;;;;;;5034621;28;20439;-63
2021/12/22 11:30:15;;;;;;;;;;;1.90;99.90;;;;;;5039035;28;19926;-60
2021/12/22 11:32:41;;;;;;;;;;;1.80;99.90;;;;;;5051569;28;19915;-66
2021/12/22 11:35:09;;;;;;;;;;;1.80;99.90;;;;;;5049056;28;19952;-64
2021/12/22 11:37:35;;;;;;;;;;;1.90;99.90;;;;;;5051116;28;20442;-60
2021/12/22 11:40:03;;;;;;;;;;;1.90;99.90;;;;;;5053835;28;20985;-64
2021/12/22 11:42:32;;;;;;;;;;;1.90;99.90;;;;;;5063501;28;20019;-61
2021/12/22 11:45:07;;;;;;;;;;;1.90;99.90;;;;;;5063345;28;19912;-64
2021/12/22 11:47:37;;;;;;;;;;;1.90;99.90;;;;;;5064536;28;19916;-64
2021/12/22 11:50:03;;;;;;;;;;;1.90;99.90;;;;;;5064936;28;20010;-61
2021/12/22 11:52:41;;;;;;;;;;;2.00;99.90;;;;;;5065030;28;20422;-64
2021/12/22 11:55:10;;;;;;;;;;;2.00;99.90;;;;;;5065820;28;20546;-66
2021/12/22 11:57:36;;;;;;;;;;;1.90;99.90;;;;;;5069545;28;21051;-63
2021/12/22 12:00:37;;;;;;;;;;;1.90;99.90;;;;;;5070823;28;19986;-68
2021/12/22 12:03:22;;;;;;;;;;;2.00;99.90;;;;;;5009147;28;19917;-64
2021/12/22 12:06:02;;;;;;;;;;;2.00;99.90;;;;;;5067920;28;20003;-64
2021/12/22 12:08:35;;;;;;;;;;;2.10;99.90;;;;;;5068719;28;20355;-68
2021/12/22 12:11:01;;;;;;;;;;;2.10;99.90;;;;;;5068267;28;19916;-64
2021/12/22 12:13:36;;;;;;;;;;;2.00;99.90;;;;;;5065981;28;20007;-65
2021/12/22 12:21:48;;;;;;;;;;;2.30;99.90;;;;;;5074053;28;19927;-67
2021/12/22 12:24:33;;;;;;;;;;;2.30;99.90;;;;;;5072010;28;20553;-68
2021/12/22 12:26:59;;;;;;;;;;;2.30;99.90;;;;;;5073078;28;19995;-63
2021/12/22 12:29:43;;;;;;;;;;;2.30;99.90;;;;;;5070868;28;19913;-62
2021/12/22 12:32:08;;;;;;;;;;;2.30;99.90;;;;;;5071966;28;19915;-68
2021/12/22 12:34:38;;;;;;;;;;;2.30;99.90;;;;;;5069756;28;19916;-63
2021/12/22 12:37:06;;;;;;;;;;;2.40;99.90;;;;;;5073015;28;19916;-66
2021/12/22 12:39:50;;;;;;;;;;;2.30;99.90;;;;;;5076271;28;20007;-66
2021/12/22 12:42:15;;;;;;;;;;;2.40;99.90;;;;;;5068682;28;20975;-67
2021/12/22 12:44:41;;;;;;;;;;;2.30;99.90;;;;;;5073345;28;19916;-64
2021/12/22 12:47:19;;;;;;;;;;;2.40;99.90;;;;;;5074476;28;19920;-64
2021/12/22 12:49:45;;;;;;;;;;;2.50;99.90;;;;;;5073276;28;20015;-65
2021/12/22 12:52:18;;;;;;;;;;;2.50;99.90;;;;;;5072023;28;19920;-67
2021/12/22 12:54:45;;;;;;;;;;;2.60;99.90;;;;;;5075457;28;20558;-64
2021/12/22 12:57:13;;;;;;;;;;;2.60;99.90;;;;;;5073410;28;20351;-66
2021/12/22 12:59:39;;;;;;;;;;;2.60;99.90;;;;;;5074309;28;19928;-65
2021/12/22 13:02:08;;;;;;;;;;;2.60;99.90;;;;;;5070449;28;19920;-65
2021/12/22 13:04:35;;;;;;;;;;;2.60;99.90;;;;;;5072775;28;20469;-64
2021/12/22 13:07:02;;;;;;;;;;;2.60;99.90;;;;;;5073206;28;20065;-66
2021/12/22 13:09:29;;;;;;;;;;;2.70;99.90;;;;;;5070524;28;20114;-66
2021/12/22 13:11:59;;;;;;;;;;;2.70;99.90;;;;;;5071928;28;20001;-67
2021/12/22 13:17:16;;;;;;;;;;;2.60;99.90;;;;;;5070996;28;19924;-67
2021/12/22 13:19:43;;;;;;;;;;;2.60;99.90;;;;;;5072974;28;19916;-63
2021/12/22 13:22:18;;;;;;;;;;;2.60;99.90;;;;;;5071335;28;19993;-67
2021/12/22 13:24:44;;;;;;;;;;;2.60;99.90;;;;;;5071919;28;20257;-63
2021/12/22 13:27:09;;;;;;;;;;;2.70;99.90;;;;;;5072047;28;19928;-65
2021/12/22 13:29:36;;;;;;;;;;;2.80;99.90;;;;;;5071088;28;20700;-68
2021/12/22 13:32:10;;;;;;;;;;;2.70;99.90;;;;;;5072118;28;20368;-66
2021/12/22 13:34:46;;;;;;;;;;;2.70;99.90;;;;;;5067191;28;19916;-66
2021/12/22 13:37:11;;;;;;;;;;;2.70;99.90;;;;;;5075481;28;19919;-66
2021/12/22 13:39:45;;;;;;;;;;;2.70;99.90;;;;;;5067453;28;20288;-66
2021/12/22 13:42:11;;;;;;;;;;;2.70;99.90;;;;;;5073218;28;19924;-68
2021/12/22 13:44:37;;;;;;;;;;;2.90;99.90;;;;;;5071985;28;20035;-68
2021/12/22 13:47:03;;;;;;;;;;;2.70;99.90;;;;;;5073006;28;19912;-67
2021/12/22 13:49:29;;;;;;;;;;;2.60;99.90;;;;;;5073731;28;20523;-67
2021/12/22 13:51:55;;;;;;;;;;;2.60;99.90;;;;;;5071061;28;20133;-66
2021/12/22 13:54:23;;;;;;;;;;;2.70;99.90;;;;;;5071389;28;20003;-67
2021/12/22 13:56:49;;;;;;;;;;;2.70;99.90;;;;;;5072050;28;19916;-66
2021/12/22 13:59:16;;;;;;;;;;;2.70;99.90;;;;;;5070216;28;19989;-64
2021/12/22 14:01:48;;;;;;;;;;;2.60;99.90;;;;;;5070996;28;20667;-67
2021/12/22 14:04:13;;;;;;;;;;;2.60;99.90;;;;;;5071930;28;19916;-67
2021/12/22 14:06:42;;;;;;;;;;;2.60;99.90;;;;;;5071262;28;20010;-64
2021/12/22 14:09:12;;;;;;;;;;;2.50;99.90;;;;;;5071522;28;19984;-65
2021/12/22 14:11:39;;;;;;;;;;;2.60;99.90;;;;;;5071140;28;20518;-67
2021/12/22 14:14:19;;;;;;;;;;;2.70;99.90;;;;;;5071597;28;20426;-66
2021/12/22 14:16:45;;;;;;;;;;;2.60;99.90;;;;;;5069880;28;19924;-66
2021/12/22 14:19:14;;;;;;;;;;;2.60;99.90;;;;;;5069692;28;19998;-66
2021/12/22 14:21:40;;;;;;;;;;;2.50;99.90;;;;;;5072024;28;19947;-66
2021/12/22 14:24:06;;;;;;;;;;;2.50;99.90;;;;;;5068714;28;19926;-66
2021/12/22 14:26:32;;;;;;;;;;;2.50;99.90;;;;;;5073798;28;19920;-64
2021/12/22 14:29:04;;;;;;;;;;;2.30;99.90;;;;;;5069250;28;20300;-66
2021/12/22 14:31:30;;;;;;;;;;;2.40;99.90;;;;;;5067831;28;19920;-65
2021/12/22 14:34:06;;;;;;;;;;;2.40;99.90;;;;;;5069014;28;19916;-63
2021/12/22 14:36:41;;;;;;;;;;;2.30;99.90;;;;;;5070297;28;19934;-64
2021/12/22 14:39:07;;;;;;;;;;;2.30;99.90;;;;;;5071565;28;19931;-66
2021/12/22 14:41:32;;;;;;;;;;;2.50;99.90;;;;;;5070575;28;19920;-63
2021/12/22 14:43:58;;;;;;;;;;;2.30;99.90;;;;;;5069644;28;20011;-65
2021/12/22 14:46:30;;;;;;;;;;;2.30;99.90;;;;;;5068802;28;21048;-65
2021/12/22 14:48:58;;;;;;;;;;;2.30;99.90;;;;;;5072172;28;19966;-65